createdAt,value
2018-09-29T00:00:05.190Z,10.80
2018-09-29T00:01:05.172Z,11.10
2018-09-29T00:02:05.192Z,10.70
2018-09-29T00:03:05.193Z,11.20
2018-09-29T00:04:05.142Z,11.10
2018-09-29T00:05:05.129Z,10.40
2018-09-29T00:06:05.127Z,9.20
2018-09-29T00:07:05.141Z,9.40
2018-09-29T00:08:05.102Z,9.20
2018-09-29T00:09:05.093Z,9.10
2018-09-29T00:10:05.116Z,9.10
2018-09-29T00:11:05.067Z,9.10
2018-09-29T00:12:05.106Z,8.90
2018-09-29T00:13:05.061Z,8.90
2018-09-29T00:14:05.036Z,9.20
2018-09-29T00:15:05.046Z,8.80
2018-09-29T00:16:05.019Z,9.30
2018-09-29T00:17:05.001Z,8.80
2018-09-29T00:18:05.040Z,8.80
2018-09-29T00:19:04.994Z,9.10
2018-09-29T00:20:04.973Z,8.90
2018-09-29T00:21:04.962Z,8.70
2018-09-29T00:22:04.956Z,8.30
2018-09-29T00:23:04.968Z,8.20
2018-09-29T00:24:04.938Z,8.10
2018-09-29T00:25:04.936Z,8.80
2018-09-29T00:26:04.906Z,8.70
2018-09-29T00:27:04.907Z,8.00
2018-09-29T00:28:04.920Z,8.40
2018-09-29T00:29:04.872Z,8.60
2018-09-29T00:30:04.866Z,8.10
2018-09-29T00:31:04.895Z,8.90
2018-09-29T00:32:04.862Z,8.50
2018-09-29T00:33:04.833Z,8.40
2018-09-29T00:34:04.846Z,8.20
2018-09-29T00:35:04.825Z,8.00
2018-09-29T00:36:04.815Z,7.60
2018-09-29T00:37:04.824Z,7.90
2018-09-29T00:38:04.919Z,7.70
2018-09-29T00:39:04.806Z,7.70
2018-09-29T00:40:04.760Z,7.70
2018-09-29T00:41:04.765Z,7.30
2018-09-29T00:42:04.747Z,6.90
2018-09-29T00:43:04.726Z,6.90
2018-09-29T00:44:04.744Z,7.20
2018-09-29T00:45:04.711Z,6.40
2018-09-29T00:46:04.688Z,6.40
2018-09-29T00:47:04.697Z,6.20
2018-09-29T00:48:04.667Z,6.70
2018-09-29T00:49:04.692Z,6.70
2018-09-29T00:50:04.653Z,6.50
2018-09-29T00:51:04.669Z,6.00
2018-09-29T00:52:04.631Z,6.40
2018-09-29T00:53:05.238Z,6.60
2018-09-29T00:54:04.620Z,6.00
2018-09-29T00:55:04.627Z,6.00
2018-09-29T00:56:04.581Z,5.80
2018-09-29T00:57:04.571Z,6.00
2018-09-29T00:58:04.561Z,5.90
2018-09-29T00:59:04.583Z,5.90
2018-09-29T01:00:04.571Z,6.00
2018-09-29T01:01:04.530Z,6.00
2018-09-29T01:02:04.521Z,6.60
2018-09-29T01:03:04.521Z,5.90
2018-09-29T01:04:04.515Z,6.00
2018-09-29T01:05:04.514Z,6.20
2018-09-29T01:06:04.476Z,6.10
2018-09-29T01:07:04.471Z,5.70
2018-09-29T01:08:04.457Z,5.50
2018-09-29T01:09:04.487Z,5.60
2018-09-29T01:10:04.479Z,5.60
2018-09-29T01:11:04.433Z,5.90
2018-09-29T01:12:04.414Z,5.90
2018-09-29T01:13:04.431Z,5.90
2018-09-29T01:14:04.391Z,5.50
2018-09-29T01:15:04.400Z,6.10
2018-09-29T01:16:04.397Z,5.40
2018-09-29T01:17:04.355Z,5.00
2018-09-29T01:18:04.345Z,5.60
2018-09-29T01:19:04.338Z,5.60
2018-09-29T01:20:04.328Z,5.50
2018-09-29T01:21:04.341Z,5.00
2018-09-29T01:22:04.310Z,5.90
2018-09-29T01:23:04.302Z,5.70
2018-09-29T01:24:04.285Z,5.70
2018-09-29T01:25:04.272Z,5.50
2018-09-29T01:26:04.304Z,5.50
2018-09-29T01:27:04.258Z,5.50
2018-09-29T01:28:04.239Z,5.40
2018-09-29T01:29:04.239Z,5.50
2018-09-29T01:30:04.223Z,5.40
2018-09-29T01:31:04.222Z,5.70
2018-09-29T01:32:04.234Z,5.40
2018-09-29T01:33:04.188Z,5.20
2018-09-29T01:34:04.180Z,5.40
2018-09-29T01:35:04.173Z,5.50
2018-09-29T01:36:04.171Z,5.10
2018-09-29T01:37:04.187Z,5.40
2018-09-29T01:38:04.139Z,5.40
2018-09-29T01:39:04.140Z,4.90
2018-09-29T01:40:04.118Z,5.30
2018-09-29T01:41:04.107Z,5.20
2018-09-29T01:42:04.123Z,5.50
2018-09-29T01:43:04.084Z,5.30
2018-09-29T01:44:04.079Z,5.10
2018-09-29T01:45:04.061Z,5.10
2018-09-29T01:46:04.052Z,5.10
2018-09-29T01:47:04.071Z,5.00
2018-09-29T01:48:04.049Z,4.90
2018-09-29T01:49:04.023Z,4.80
2018-09-29T01:50:04.017Z,4.70
2018-09-29T01:51:03.999Z,4.90
2018-09-29T01:52:03.984Z,5.10
2018-09-29T01:53:04.000Z,4.80
2018-09-29T01:54:03.962Z,4.70
2018-09-29T01:55:03.952Z,4.30
2018-09-29T01:56:03.940Z,4.70
2018-09-29T01:57:03.929Z,4.50
2018-09-29T01:58:03.963Z,4.30
2018-09-29T01:59:03.910Z,4.40
2018-09-29T02:00:03.921Z,4.40
2018-09-29T02:01:03.911Z,4.70
2018-09-29T02:02:03.894Z,4.60
2018-09-29T02:03:03.896Z,4.80
2018-09-29T02:04:03.881Z,4.60
2018-09-29T02:05:03.936Z,4.60
2018-09-29T02:06:03.836Z,4.80
2018-09-29T02:07:03.853Z,4.90
2018-09-29T02:08:03.934Z,4.60
2018-09-29T02:09:03.823Z,4.60
2018-09-29T02:10:03.792Z,4.50
2018-09-29T02:11:03.796Z,4.40
2018-09-29T02:12:03.779Z,4.40
2018-09-29T02:13:03.762Z,4.90
2018-09-29T02:14:03.824Z,5.00
2018-09-29T02:15:03.768Z,5.10
2018-09-29T02:16:03.726Z,4.60
2018-09-29T02:17:03.726Z,4.50
2018-09-29T02:18:03.716Z,4.30
2018-09-29T02:19:03.697Z,4.00
2018-09-29T02:20:03.707Z,4.60
2018-09-29T02:21:03.680Z,4.70
2018-09-29T02:22:03.681Z,4.20
2018-09-29T02:23:03.663Z,4.30
2018-09-29T02:24:03.652Z,4.20
2018-09-29T02:25:03.659Z,4.50
2018-09-29T02:26:03.632Z,5.10
2018-09-29T02:27:03.613Z,4.40
2018-09-29T02:28:03.607Z,4.60
2018-09-29T02:29:03.680Z,5.00
2018-09-29T02:30:03.621Z,5.00
2018-09-29T02:31:03.597Z,4.70
2018-09-29T02:32:03.566Z,4.40
2018-09-29T02:33:03.545Z,4.40
2018-09-29T02:34:03.537Z,4.40
2018-09-29T02:35:03.568Z,4.30
2018-09-29T02:36:03.517Z,4.20
2018-09-29T02:37:03.502Z,4.40
2018-09-29T02:38:03.527Z,4.30
2018-09-29T02:39:03.486Z,4.20
2018-09-29T02:40:03.474Z,4.10
2018-09-29T02:41:03.494Z,4.40
2018-09-29T02:42:03.454Z,4.00
2018-09-29T02:43:03.460Z,4.50
2018-09-29T02:44:03.448Z,4.30
2018-09-29T02:45:03.427Z,4.20
2018-09-29T02:46:03.428Z,4.80
2018-09-29T02:47:03.401Z,4.40
2018-09-29T02:48:03.392Z,4.20
2018-09-29T02:49:03.387Z,4.70
2018-09-29T02:50:03.381Z,4.30
2018-09-29T02:51:03.413Z,4.40
2018-09-29T02:52:03.377Z,4.60
2018-09-29T02:53:03.345Z,4.70
2018-09-29T02:54:03.326Z,4.40
2018-09-29T02:55:03.312Z,4.60
2018-09-29T02:56:03.340Z,4.20
2018-09-29T02:57:03.302Z,4.50
2018-09-29T02:58:03.291Z,4.30
2018-09-29T02:59:03.285Z,4.70
2018-09-29T03:00:03.271Z,5.30
2018-09-29T03:01:03.267Z,4.50
2018-09-29T03:02:03.287Z,4.40
2018-09-29T03:03:03.246Z,4.40
2018-09-29T03:04:03.225Z,4.30
2018-09-29T03:05:03.225Z,4.60
2018-09-29T03:06:03.221Z,4.20
2018-09-29T03:07:03.268Z,4.70
2018-09-29T03:08:03.189Z,4.60
2018-09-29T03:09:03.176Z,4.70
2018-09-29T03:10:03.154Z,4.60
2018-09-29T03:11:03.146Z,4.30
2018-09-29T03:12:03.190Z,4.00
2018-09-29T03:13:03.219Z,4.10
2018-09-29T03:14:03.122Z,4.10
2018-09-29T03:15:03.103Z,4.10
2018-09-29T03:16:03.120Z,4.00
2018-09-29T03:17:03.109Z,4.30
2018-09-29T03:18:03.077Z,3.80
2018-09-29T03:19:03.128Z,4.00
2018-09-29T03:20:03.070Z,4.50
2018-09-29T03:21:03.043Z,4.00
2018-09-29T03:22:03.056Z,4.20
2018-09-29T03:23:03.099Z,4.40
2018-09-29T03:24:03.020Z,4.40
2018-09-29T03:25:03.002Z,4.50
2018-09-29T03:26:03.004Z,4.20
2018-09-29T03:27:03.023Z,4.40
2018-09-29T03:28:02.989Z,4.20
2018-09-29T03:29:02.973Z,4.00
2018-09-29T03:30:02.939Z,4.60
2018-09-29T03:31:02.931Z,4.20
2018-09-29T03:32:02.926Z,4.10
2018-09-29T03:33:02.950Z,3.70
2018-09-29T03:34:02.910Z,4.00
2018-09-29T03:35:02.901Z,4.10
2018-09-29T03:36:02.903Z,4.30
2018-09-29T03:37:02.876Z,4.40
2018-09-29T03:38:02.883Z,4.40
2018-09-29T03:39:02.853Z,4.20
2018-09-29T03:40:02.837Z,4.10
2018-09-29T03:41:02.820Z,4.20
2018-09-29T03:42:02.837Z,4.10
2018-09-29T03:43:02.864Z,4.10
2018-09-29T03:44:02.798Z,4.10
2018-09-29T03:45:02.785Z,4.00
2018-09-29T03:46:02.776Z,3.90
2018-09-29T03:47:02.753Z,3.60
2018-09-29T03:48:02.777Z,4.00
2018-09-29T03:49:02.764Z,3.70
2018-09-29T03:50:02.771Z,3.90
2018-09-29T03:51:02.736Z,3.60
2018-09-29T03:52:02.701Z,3.80
2018-09-29T03:53:02.723Z,3.80
2018-09-29T03:54:02.709Z,3.70
2018-09-29T03:55:02.674Z,3.60
2018-09-29T03:56:02.672Z,3.40
2018-09-29T03:57:02.663Z,3.10
2018-09-29T03:58:02.638Z,3.40
2018-09-29T03:59:02.660Z,3.50
2018-09-29T04:00:02.630Z,3.50
2018-09-29T04:01:02.604Z,3.40
2018-09-29T04:02:02.601Z,3.20
2018-09-29T04:03:02.643Z,3.50
2018-09-29T04:04:02.604Z,3.30
2018-09-29T04:05:02.561Z,3.00
2018-09-29T04:06:02.572Z,3.20
2018-09-29T04:07:02.538Z,3.20
2018-09-29T04:08:02.531Z,3.20
2018-09-29T04:09:02.517Z,3.10
2018-09-29T04:10:02.542Z,3.10
2018-09-29T04:11:02.497Z,3.20
2018-09-29T04:12:02.484Z,3.10
2018-09-29T04:13:02.489Z,3.10
2018-09-29T04:14:02.471Z,3.10
2018-09-29T04:15:02.491Z,3.20
2018-09-29T04:16:02.452Z,2.90
2018-09-29T04:17:02.441Z,3.30
2018-09-29T04:18:02.423Z,2.60
2018-09-29T04:19:02.415Z,2.80
2018-09-29T04:20:02.432Z,2.70
2018-09-29T04:21:02.394Z,3.10
2018-09-29T04:22:02.381Z,2.90
2018-09-29T04:23:02.372Z,3.10
2018-09-29T04:24:02.370Z,2.70
2018-09-29T04:25:02.426Z,2.70
2018-09-29T04:26:02.348Z,2.90
2018-09-29T04:27:02.339Z,2.80
2018-09-29T04:28:02.347Z,2.70
2018-09-29T04:29:02.309Z,3.10
2018-09-29T04:30:02.297Z,2.70
2018-09-29T04:31:02.321Z,2.50
2018-09-29T04:32:02.275Z,2.80
2018-09-29T04:33:02.272Z,2.60
2018-09-29T04:34:02.265Z,2.70
2018-09-29T04:35:02.243Z,2.60
2018-09-29T04:36:02.269Z,2.50
2018-09-29T04:37:02.224Z,2.60
2018-09-29T04:38:02.211Z,2.50
2018-09-29T04:39:02.199Z,2.60
2018-09-29T04:40:02.188Z,2.70
2018-09-29T04:41:02.225Z,2.60
2018-09-29T04:42:02.170Z,2.60
2018-09-29T04:43:02.235Z,2.90
2018-09-29T04:44:02.163Z,2.60
2018-09-29T04:45:02.134Z,2.60
2018-09-29T04:46:02.152Z,2.70
2018-09-29T04:47:02.135Z,2.70
2018-09-29T04:48:02.138Z,2.30
2018-09-29T04:49:02.100Z,2.50
2018-09-29T04:50:02.085Z,2.40
2018-09-29T04:51:02.086Z,2.30
2018-09-29T04:52:02.089Z,2.40
2018-09-29T04:53:02.074Z,2.50
2018-09-29T04:54:02.042Z,2.70
2018-09-29T04:55:02.036Z,2.50
2018-09-29T04:56:02.025Z,2.70
2018-09-29T04:57:02.049Z,2.40
2018-09-29T04:58:02.011Z,2.40
2018-09-29T04:59:01.991Z,2.50
2018-09-29T05:00:01.983Z,2.70
2018-09-29T05:01:01.985Z,2.40
2018-09-29T05:02:02.020Z,2.60
2018-09-29T05:03:01.939Z,2.60
2018-09-29T05:04:01.930Z,2.40
2018-09-29T05:05:01.941Z,2.70
2018-09-29T05:06:01.906Z,2.50
2018-09-29T05:07:01.920Z,2.70
2018-09-29T05:08:01.936Z,2.70
2018-09-29T05:09:01.878Z,2.40
2018-09-29T05:10:01.883Z,2.50
2018-09-29T05:11:01.864Z,2.30
2018-09-29T05:12:01.857Z,2.50
2018-09-29T05:13:01.884Z,2.50
2018-09-29T05:14:01.933Z,2.40
2018-09-29T05:15:01.813Z,2.30
2018-09-29T05:16:01.808Z,2.40
2018-09-29T05:17:01.807Z,2.60
2018-09-29T05:18:01.825Z,2.50
2018-09-29T05:19:01.786Z,2.50
2018-09-29T05:20:01.761Z,2.30
2018-09-29T05:21:01.775Z,2.30
2018-09-29T05:22:01.745Z,2.50
2018-09-29T05:23:01.768Z,2.30
2018-09-29T05:24:01.749Z,2.60
2018-09-29T05:25:01.711Z,2.60
2018-09-29T05:26:01.714Z,2.60
2018-09-29T05:27:01.723Z,2.40
2018-09-29T05:28:01.689Z,2.90
2018-09-29T05:29:01.707Z,2.30
2018-09-29T05:30:01.653Z,2.30
2018-09-29T05:31:01.881Z,2.70
2018-09-29T05:32:01.637Z,2.40
2018-09-29T05:33:01.630Z,2.50
2018-09-29T05:34:01.652Z,2.60
2018-09-29T05:35:01.614Z,3.00
2018-09-29T05:36:01.646Z,2.40
2018-09-29T05:37:01.591Z,2.70
2018-09-29T05:38:01.571Z,2.90
2018-09-29T05:39:01.629Z,2.40
2018-09-29T05:40:01.584Z,2.70
2018-09-29T05:41:01.546Z,2.60
2018-09-29T05:42:01.537Z,2.30
2018-09-29T05:43:01.526Z,2.60
2018-09-29T05:44:01.503Z,2.60
2018-09-29T05:45:01.527Z,2.50
2018-09-29T05:46:01.494Z,2.40
2018-09-29T05:47:01.479Z,2.50
2018-09-29T05:48:01.483Z,2.70
2018-09-29T05:49:01.456Z,2.70
2018-09-29T05:50:01.466Z,2.30
2018-09-29T05:51:01.450Z,2.20
2018-09-29T05:52:01.428Z,2.50
2018-09-29T05:53:01.449Z,2.30
2018-09-29T05:54:01.540Z,2.50
2018-09-29T05:55:01.441Z,2.50
2018-09-29T05:56:01.398Z,2.50
2018-09-29T05:57:01.365Z,2.20
2018-09-29T05:58:01.362Z,2.70
2018-09-29T05:59:01.348Z,2.40
2018-09-29T06:00:01.497Z,2.70
2018-09-29T06:01:01.349Z,2.40
2018-09-29T06:02:01.322Z,2.20
2018-09-29T06:03:01.383Z,2.30
2018-09-29T06:04:01.384Z,2.50
2018-09-29T06:05:01.316Z,2.40
2018-09-29T06:06:01.271Z,2.70
2018-09-29T06:07:01.310Z,2.60
2018-09-29T06:08:01.289Z,2.50
2018-09-29T06:09:01.265Z,2.80
2018-09-29T06:10:01.222Z,2.50
2018-09-29T06:11:01.224Z,2.30
2018-09-29T06:12:01.208Z,2.70
2018-09-29T06:13:01.267Z,2.60
2018-09-29T06:14:01.188Z,2.80
2018-09-29T06:15:01.192Z,2.40
2018-09-29T06:16:01.165Z,2.40
2018-09-29T06:17:01.157Z,2.40
2018-09-29T06:18:01.185Z,2.40
2018-09-29T06:19:01.148Z,2.60
2018-09-29T06:20:01.126Z,2.50
2018-09-29T06:21:01.192Z,2.50
2018-09-29T06:22:01.111Z,2.70
2018-09-29T06:23:01.135Z,2.30
2018-09-29T06:24:01.084Z,2.30
2018-09-29T06:25:01.069Z,2.50
2018-09-29T06:26:01.067Z,2.50
2018-09-29T06:27:01.041Z,2.50
2018-09-29T06:28:01.119Z,2.60
2018-09-29T06:29:01.053Z,2.80
2018-09-29T06:30:01.021Z,2.40
2018-09-29T06:31:01.000Z,2.40
2018-09-29T06:32:00.989Z,2.30
2018-09-29T06:33:00.982Z,2.30
2018-09-29T06:34:00.995Z,2.70
2018-09-29T06:35:00.960Z,2.70
2018-09-29T06:36:00.957Z,2.40
2018-09-29T06:37:00.957Z,2.50
2018-09-29T06:38:00.926Z,2.60
2018-09-29T06:39:00.940Z,2.60
2018-09-29T06:40:00.917Z,2.60
2018-09-29T06:41:00.926Z,2.20
2018-09-29T06:42:00.907Z,2.40
2018-09-29T06:43:00.870Z,2.40
2018-09-29T06:44:00.863Z,2.30
2018-09-29T06:45:00.880Z,2.50
2018-09-29T06:46:00.857Z,2.50
2018-09-29T06:47:00.832Z,2.60
2018-09-29T06:48:00.871Z,2.30
2018-09-29T06:49:00.815Z,2.30
2018-09-29T06:50:00.820Z,2.60
2018-09-29T06:51:00.810Z,2.10
2018-09-29T06:52:00.780Z,2.60
2018-09-29T06:53:00.778Z,2.60
2018-09-29T06:54:00.763Z,2.60
2018-09-29T06:55:00.751Z,2.60
2018-09-29T06:56:00.760Z,3.60
2018-09-29T06:57:00.728Z,2.80
2018-09-29T06:58:00.718Z,3.00
2018-09-29T06:59:00.720Z,2.80
2018-09-29T07:00:00.702Z,2.70
2018-09-29T07:01:00.711Z,2.40
2018-09-29T07:02:00.678Z,2.50
2018-09-29T07:03:00.683Z,2.80
2018-09-29T07:04:00.648Z,2.70
2018-09-29T07:05:00.641Z,3.30
2018-09-29T07:06:00.668Z,2.70
2018-09-29T07:07:00.622Z,2.80
2018-09-29T07:08:00.609Z,2.50
2018-09-29T07:09:00.598Z,2.90
2018-09-29T07:10:00.621Z,2.90
2018-09-29T07:11:00.592Z,2.80
2018-09-29T07:12:00.565Z,2.80
2018-09-29T07:13:00.650Z,3.00
2018-09-29T07:14:00.540Z,2.90
2018-09-29T07:15:00.533Z,2.60
2018-09-29T07:16:00.542Z,2.60
2018-09-29T07:17:00.532Z,2.70
2018-09-29T07:18:00.500Z,2.50
2018-09-29T07:19:00.487Z,2.40
2018-09-29T07:20:00.485Z,2.90
2018-09-29T07:21:00.497Z,2.50
2018-09-29T07:22:00.518Z,2.50
2018-09-29T07:23:00.462Z,2.40
2018-09-29T07:24:00.433Z,2.50
2018-09-29T07:25:00.427Z,2.80
2018-09-29T07:26:00.445Z,2.90
2018-09-29T07:27:00.405Z,2.70
2018-09-29T07:28:00.390Z,2.60
2018-09-29T07:29:00.398Z,2.60
2018-09-29T07:30:00.373Z,2.70
2018-09-29T07:31:00.367Z,2.60
2018-09-29T07:32:00.373Z,2.70
2018-09-29T07:33:00.341Z,2.70
2018-09-29T07:34:00.344Z,3.00
2018-09-29T07:35:00.321Z,2.60
2018-09-29T07:36:00.306Z,2.50
2018-09-29T07:37:00.313Z,2.60
2018-09-29T07:38:00.318Z,2.40
2018-09-29T07:39:00.331Z,3.00
2018-09-29T07:40:00.328Z,3.00
2018-09-29T07:41:00.257Z,2.60
2018-09-29T07:42:00.275Z,2.60
2018-09-29T07:43:00.231Z,2.60
2018-09-29T07:44:00.228Z,3.30
2018-09-29T07:45:00.207Z,2.50
2018-09-29T07:46:00.199Z,2.80
2018-09-29T07:47:00.210Z,2.70
2018-09-29T07:48:00.207Z,2.80
2018-09-29T07:49:00.185Z,2.60
2018-09-29T07:50:00.191Z,2.50
2018-09-29T07:51:00.144Z,2.60
2018-09-29T07:52:00.144Z,2.70
2018-09-29T07:53:00.135Z,2.50
2018-09-29T07:54:00.115Z,2.90
2018-09-29T07:55:00.145Z,2.80
2018-09-29T07:56:00.218Z,2.80
2018-09-29T07:57:00.118Z,2.60
2018-09-29T07:58:00.088Z,2.70
2018-09-29T07:59:00.099Z,2.50
2018-09-29T08:00:00.053Z,2.90
2018-09-29T08:01:00.052Z,2.70
2018-09-29T08:02:00.032Z,2.70
2018-09-29T08:03:00.021Z,2.80
2018-09-29T08:04:00.040Z,2.60
2018-09-29T08:04:59.999Z,2.70
2018-09-29T08:05:59.989Z,2.70
2018-09-29T08:06:59.976Z,2.90
2018-09-29T08:07:59.962Z,2.70
2018-09-29T08:08:59.975Z,2.40
2018-09-29T08:09:59.968Z,2.60
2018-09-29T08:10:59.935Z,2.80
2018-09-29T08:11:59.921Z,2.80
2018-09-29T08:12:59.910Z,2.70
2018-09-29T08:13:59.944Z,2.50
2018-09-29T08:14:59.893Z,2.90
2018-09-29T08:15:59.875Z,3.00
2018-09-29T08:16:59.874Z,2.60
2018-09-29T08:17:59.862Z,3.10
2018-09-29T08:18:59.847Z,2.60
2018-09-29T08:19:59.859Z,2.60
2018-09-29T08:20:59.825Z,3.00
2018-09-29T08:21:59.811Z,2.60
2018-09-29T08:22:59.810Z,2.80
2018-09-29T08:23:59.928Z,2.60
2018-09-29T08:24:59.877Z,2.70
2018-09-29T08:25:59.808Z,3.00
2018-09-29T08:26:59.758Z,2.60
2018-09-29T08:27:59.749Z,2.90
2018-09-29T08:28:59.739Z,2.70
2018-09-29T08:29:59.743Z,2.90
2018-09-29T08:30:59.742Z,2.60
2018-09-29T08:31:59.707Z,2.70
2018-09-29T08:32:59.722Z,2.80
2018-09-29T08:33:59.691Z,2.70
2018-09-29T08:34:59.685Z,2.90
2018-09-29T08:35:59.704Z,2.80
2018-09-29T08:36:59.667Z,2.40
2018-09-29T08:37:59.685Z,2.70
2018-09-29T08:38:59.627Z,3.20
2018-09-29T08:39:59.634Z,3.10
2018-09-29T08:40:59.670Z,3.00
2018-09-29T08:41:59.636Z,3.10
2018-09-29T08:42:59.596Z,2.80
2018-09-29T08:43:59.578Z,3.00
2018-09-29T08:44:59.579Z,3.10
2018-09-29T08:45:59.594Z,2.80
2018-09-29T08:46:59.613Z,3.20
2018-09-29T08:47:59.544Z,3.00
2018-09-29T08:48:59.574Z,3.00
2018-09-29T08:49:59.511Z,3.00
2018-09-29T08:50:59.525Z,2.60
2018-09-29T08:51:59.496Z,3.00
2018-09-29T08:52:59.480Z,2.80
2018-09-29T08:53:59.590Z,3.00
2018-09-29T08:54:59.489Z,3.20
2018-09-29T08:55:59.451Z,3.00
2018-09-29T08:56:59.439Z,2.90
2018-09-29T08:57:59.426Z,3.00
2018-09-29T08:58:59.419Z,2.90
2018-09-29T08:59:59.437Z,2.90
2018-09-29T09:00:59.398Z,2.80
2018-09-29T09:01:59.386Z,2.80
2018-09-29T09:02:59.374Z,2.80
2018-09-29T09:03:59.385Z,2.80
2018-09-29T09:04:59.389Z,3.20
2018-09-29T09:05:59.357Z,3.50
2018-09-29T09:06:59.342Z,3.60
2018-09-29T09:07:59.323Z,3.70
2018-09-29T09:08:59.319Z,3.50
2018-09-29T09:09:59.356Z,3.60
2018-09-29T09:10:59.318Z,3.40
2018-09-29T09:11:59.293Z,3.10
2018-09-29T09:12:59.323Z,3.30
2018-09-29T09:13:59.288Z,3.30
2018-09-29T09:14:59.254Z,3.00
2018-09-29T09:15:59.274Z,3.10
2018-09-29T09:16:59.297Z,2.90
2018-09-29T09:17:59.213Z,3.20
2018-09-29T09:18:59.217Z,3.00
2018-09-29T09:19:59.196Z,2.60
2018-09-29T09:20:59.248Z,3.00
2018-09-29T09:21:59.780Z,3.20
2018-09-29T09:22:59.196Z,3.60
2018-09-29T09:23:59.158Z,3.00
2018-09-29T09:24:59.135Z,3.00
2018-09-29T09:25:59.149Z,2.60
2018-09-29T09:26:59.116Z,3.10
2018-09-29T09:27:59.114Z,3.30
2018-09-29T09:28:59.124Z,3.30
2018-09-29T09:29:59.183Z,3.30
2018-09-29T09:30:59.138Z,3.20
2018-09-29T09:31:59.077Z,3.10
2018-09-29T09:32:59.098Z,3.20
2018-09-29T09:33:59.048Z,3.50
2018-09-29T09:34:59.059Z,3.20
2018-09-29T09:35:59.026Z,3.50
2018-09-29T09:36:59.018Z,3.50
2018-09-29T09:37:58.995Z,3.40
2018-09-29T09:38:58.985Z,3.60
2018-09-29T09:39:59.003Z,3.20
2018-09-29T09:40:58.992Z,3.50
2018-09-29T09:41:58.953Z,3.50
2018-09-29T09:42:58.964Z,3.80
2018-09-29T09:43:58.933Z,3.90
2018-09-29T09:44:58.933Z,3.50
2018-09-29T09:45:58.915Z,3.70
2018-09-29T09:46:58.905Z,3.40
2018-09-29T09:47:58.928Z,3.50
2018-09-29T09:48:58.892Z,3.10
2018-09-29T09:49:58.883Z,3.70
2018-09-29T09:50:58.863Z,3.50
2018-09-29T09:51:58.850Z,3.90
2018-09-29T09:52:58.873Z,3.60
2018-09-29T09:53:58.838Z,3.30
2018-09-29T09:54:58.847Z,3.70
2018-09-29T09:55:58.852Z,3.90
2018-09-29T09:56:58.811Z,3.90
2018-09-29T09:57:58.814Z,3.90
2018-09-29T09:58:58.773Z,3.80
2018-09-29T09:59:58.766Z,3.50
2018-09-29T10:00:58.748Z,3.50
2018-09-29T10:01:58.741Z,3.50
2018-09-29T10:02:58.735Z,3.80
2018-09-29T10:03:58.738Z,3.80
2018-09-29T10:04:58.710Z,3.80
2018-09-29T10:05:58.698Z,3.80
2018-09-29T10:06:58.704Z,4.00
2018-09-29T10:07:58.706Z,3.70
2018-09-29T10:08:58.688Z,3.60
2018-09-29T10:09:58.661Z,3.50
2018-09-29T10:10:58.649Z,3.70
2018-09-29T10:11:58.644Z,3.60
2018-09-29T10:12:58.641Z,3.40
2018-09-29T10:13:58.619Z,4.20
2018-09-29T10:14:58.600Z,3.90
2018-09-29T10:15:58.593Z,4.00
2018-09-29T10:16:58.587Z,3.90
2018-09-29T10:17:58.616Z,3.70
2018-09-29T10:18:58.569Z,4.20
2018-09-29T10:19:58.555Z,3.70
2018-09-29T10:20:58.545Z,4.20
2018-09-29T10:21:58.556Z,3.90
2018-09-29T10:22:58.520Z,4.20
2018-09-29T10:23:58.537Z,4.40
2018-09-29T10:24:58.498Z,4.70
2018-09-29T10:25:58.485Z,3.60
2018-09-29T10:26:58.471Z,4.30
2018-09-29T10:27:58.467Z,4.30
2018-09-29T10:28:58.484Z,4.30
2018-09-29T10:29:58.447Z,4.00
2018-09-29T10:30:58.497Z,4.10
2018-09-29T10:31:58.424Z,4.40
2018-09-29T10:32:58.409Z,4.70
2018-09-29T10:33:58.410Z,4.50
2018-09-29T10:34:58.389Z,4.20
2018-09-29T10:35:58.422Z,3.90
2018-09-29T10:36:58.391Z,4.10
2018-09-29T10:37:58.364Z,4.50
2018-09-29T10:38:58.348Z,4.80
2018-09-29T10:39:58.350Z,4.40
2018-09-29T10:40:58.323Z,4.70
2018-09-29T10:41:58.337Z,4.90
2018-09-29T10:42:58.311Z,4.60
2018-09-29T10:43:58.301Z,5.30
2018-09-29T10:44:58.287Z,5.40
2018-09-29T10:45:58.278Z,5.20
2018-09-29T10:46:58.300Z,5.80
2018-09-29T10:47:58.264Z,5.70
2018-09-29T10:48:58.252Z,4.90
2018-09-29T10:49:58.244Z,5.10
2018-09-29T10:50:58.229Z,5.00
2018-09-29T10:51:58.213Z,5.20
2018-09-29T10:52:58.257Z,5.30
2018-09-29T10:53:58.208Z,5.80
2018-09-29T10:54:58.207Z,5.40
2018-09-29T10:55:58.168Z,5.40
2018-09-29T10:56:58.165Z,5.40
2018-09-29T10:57:58.181Z,5.60
2018-09-29T10:58:58.154Z,5.40
2018-09-29T10:59:58.147Z,5.90
2018-09-29T11:00:58.128Z,5.80
2018-09-29T11:01:58.109Z,5.60
2018-09-29T11:02:58.131Z,5.60
2018-09-29T11:03:58.098Z,5.50
2018-09-29T11:04:58.162Z,5.30
2018-09-29T11:05:58.085Z,5.20
2018-09-29T11:06:58.061Z,4.90
2018-09-29T11:07:58.084Z,6.00
2018-09-29T11:08:58.093Z,5.50
2018-09-29T11:09:58.038Z,5.40
2018-09-29T11:10:58.021Z,5.40
2018-09-29T11:11:58.014Z,5.40
2018-09-29T11:12:58.003Z,5.60
2018-09-29T11:13:58.038Z,6.40
2018-09-29T11:14:57.997Z,5.70
2018-09-29T11:15:57.974Z,5.40
2018-09-29T11:16:58.002Z,5.30
2018-09-29T11:17:57.959Z,6.00
2018-09-29T11:18:57.981Z,5.70
2018-09-29T11:19:57.948Z,5.90
2018-09-29T11:20:58.076Z,5.60
2018-09-29T11:21:57.919Z,5.90
2018-09-29T11:22:57.913Z,6.10
2018-09-29T11:23:57.896Z,6.10
2018-09-29T11:24:57.927Z,5.60
2018-09-29T11:25:57.881Z,5.70
2018-09-29T11:26:57.874Z,5.60
2018-09-29T11:27:57.865Z,5.70
2018-09-29T11:28:57.858Z,5.80
2018-09-29T11:29:57.874Z,5.70
2018-09-29T11:30:57.827Z,5.90
2018-09-29T11:31:57.818Z,6.10
2018-09-29T11:32:57.811Z,6.20
2018-09-29T11:33:57.813Z,5.60
2018-09-29T11:34:57.822Z,6.30
2018-09-29T11:35:57.784Z,5.80
2018-09-29T11:36:57.770Z,6.20
2018-09-29T11:37:57.769Z,5.40
2018-09-29T11:38:57.758Z,6.20
2018-09-29T11:39:57.779Z,5.70
2018-09-29T11:40:57.732Z,6.40
2018-09-29T11:41:57.733Z,6.00
2018-09-29T11:42:57.712Z,6.20
2018-09-29T11:43:57.711Z,5.70
2018-09-29T11:44:57.715Z,6.40
2018-09-29T11:45:57.706Z,5.70
2018-09-29T11:46:57.673Z,6.50
2018-09-29T11:47:57.664Z,5.90
2018-09-29T11:48:57.669Z,6.50
2018-09-29T11:49:57.680Z,6.10
2018-09-29T11:50:57.646Z,6.10
2018-09-29T11:51:57.632Z,5.90
2018-09-29T11:52:57.615Z,6.20
2018-09-29T11:53:57.611Z,6.10
2018-09-29T11:54:57.624Z,6.20
2018-09-29T11:55:57.599Z,5.90
2018-09-29T11:56:57.586Z,6.80
2018-09-29T11:57:57.569Z,6.30
2018-09-29T11:58:57.557Z,6.50
2018-09-29T11:59:57.590Z,5.80
2018-09-29T12:00:57.554Z,6.50
2018-09-29T12:01:57.678Z,6.00
2018-09-29T12:02:57.526Z,6.00
2018-09-29T12:03:57.551Z,5.60
2018-09-29T12:04:57.531Z,6.10
2018-09-29T12:05:57.555Z,6.20
2018-09-29T12:06:57.598Z,6.30
2018-09-29T12:07:57.502Z,6.00
2018-09-29T12:08:57.472Z,6.50
2018-09-29T12:09:57.487Z,5.80
2018-09-29T12:10:57.454Z,6.50
2018-09-29T12:11:57.436Z,6.50
2018-09-29T12:12:57.429Z,6.60
2018-09-29T12:13:57.466Z,6.30
2018-09-29T12:14:57.442Z,6.40
2018-09-29T12:15:57.409Z,6.50
2018-09-29T12:16:57.411Z,6.50
2018-09-29T12:17:57.385Z,6.20
2018-09-29T12:18:57.372Z,7.00
2018-09-29T12:19:57.359Z,5.90
2018-09-29T12:20:57.353Z,7.00
2018-09-29T12:21:57.372Z,6.10
2018-09-29T12:22:57.352Z,6.90
2018-09-29T12:23:57.337Z,6.50
2018-09-29T12:24:57.327Z,7.10
2018-09-29T12:25:57.304Z,6.50
2018-09-29T12:26:57.339Z,6.30
2018-09-29T12:27:57.291Z,7.10
2018-09-29T12:28:57.278Z,6.10
2018-09-29T12:29:57.311Z,6.60
2018-09-29T12:30:57.264Z,6.90
2018-09-29T12:31:57.290Z,7.30
2018-09-29T12:32:57.249Z,6.00
2018-09-29T12:33:57.233Z,6.70
2018-09-29T12:34:57.220Z,6.00
2018-09-29T12:35:57.246Z,6.10
2018-09-29T12:36:57.267Z,6.10
2018-09-29T12:37:57.199Z,5.60
2018-09-29T12:38:57.193Z,5.80
2018-09-29T12:39:57.178Z,5.80
2018-09-29T12:40:57.197Z,5.80
2018-09-29T12:41:57.157Z,5.60
2018-09-29T12:42:57.148Z,5.80
2018-09-29T12:43:57.143Z,5.70
2018-09-29T12:44:57.210Z,5.30
2018-09-29T12:45:57.151Z,5.40
2018-09-29T12:46:57.120Z,5.70
2018-09-29T12:47:57.101Z,5.90
2018-09-29T12:48:57.104Z,5.40
2018-09-29T12:49:57.089Z,5.70
2018-09-29T12:50:57.103Z,5.70
2018-09-29T12:51:57.160Z,5.30
2018-09-29T12:52:57.064Z,5.50
2018-09-29T12:53:57.049Z,6.30
2018-09-29T12:54:57.038Z,6.20
2018-09-29T12:55:57.062Z,5.60
2018-09-29T12:56:57.020Z,5.80
2018-09-29T12:57:57.027Z,5.70
2018-09-29T12:58:57.063Z,5.90
2018-09-29T12:59:56.988Z,5.90
2018-09-29T13:00:56.979Z,5.80
2018-09-29T13:01:56.997Z,5.80
2018-09-29T13:02:56.981Z,5.60
2018-09-29T13:03:56.953Z,5.30
2018-09-29T13:04:56.945Z,4.90
2018-09-29T13:05:56.956Z,5.60
2018-09-29T13:06:56.922Z,4.70
2018-09-29T13:07:56.942Z,5.20
2018-09-29T13:08:56.903Z,5.40
2018-09-29T13:09:56.897Z,5.10
2018-09-29T13:10:56.955Z,4.90
2018-09-29T13:11:56.900Z,5.10
2018-09-29T13:12:56.864Z,5.10
2018-09-29T13:13:56.875Z,5.20
2018-09-29T13:14:56.847Z,4.80
2018-09-29T13:15:56.874Z,4.80
2018-09-29T13:16:56.938Z,4.70
2018-09-29T13:17:56.841Z,5.10